KVDI/VDI METAR and TAF weather

Enter ICAO airport designator
Station Type Date Time Source
KVDI METAR 2019/04/18 14:55 UTC NOAA

KVDI 181455Z AUTO 16006KT 10SM SCT029 SCT035 SCT044 25/15 A3005 RMK AO2


Station Type Date Time Source
KVDI Decoded METAR 2019/04/18 14:55 UTC NOAA

Vidalia, Vidalia Municipal Airport, GA, United States (KVDI) 32-11-33N 082-22-19W
Apr 18, 2019 - 10:55 AM EDT / 2019.04.18 1455 UTC
Wind: from the SSE (160 degrees) at 7 MPH (6 KT):0
Visibility: 10 mile(s):0
Sky conditions: partly cloudy
Temperature: 77 F (25 C)
Dew Point: 59 F (15 C)
Relative Humidity: 53%
Pressure (altimeter): 30.05 in. Hg (1017 hPa)
ob: KVDI 181455Z AUTO 16006KT 10SM SCT029 SCT035 SCT044 25/15 A3005 RMK AO2
cycle: 15

Station Type Date Time Source
KVDI TAF UTC NOAA

Error!

Example: see airport list